sensor_id;sensor_type;location;lat;lon;timestamp;P1;durP1;ratioP1;P2;durP2;ratioP2
43554;SDS011;35085;40.398;-3.702;2022-09-13T00:05:01;8.23;;;1.60;;
43554;SDS011;35085;40.398;-3.702;2022-09-13T00:15:03;5.80;;;0.85;;
43554;SDS011;35085;40.398;-3.702;2022-09-13T00:25:12;4.73;;;0.87;;
43554;SDS011;35085;40.398;-3.702;2022-09-13T00:35:22;4.32;;;0.68;;
43554;SDS011;35085;40.398;-3.702;2022-09-13T00:45:31;39.08;;;3.08;;
43554;SDS011;35085;40.398;-3.702;2022-09-13T01:05:43;9.38;;;0.40;;
43554;SDS011;35085;40.398;-3.702;2022-09-13T01:15:51;4.65;;;0.30;;
43554;SDS011;35085;40.398;-3.702;2022-09-13T01:36:20;8.93;;;0.30;;
43554;SDS011;35085;40.398;-3.702;2022-09-13T01:46:51;4.50;;;0.32;;
43554;SDS011;35085;40.398;-3.702;2022-09-13T02:17:06;2.53;;;0.52;;
43554;SDS011;35085;40.398;-3.702;2022-09-13T02:27:13;4.05;;;0.38;;
43554;SDS011;35085;40.398;-3.702;2022-09-13T02:37:22;4.38;;;0.55;;
43554;SDS011;35085;40.398;-3.702;2022-09-13T02:57:33;9.63;;;1.50;;
43554;SDS011;35085;40.398;-3.702;2022-09-13T03:07:38;8.75;;;1.27;;
43554;SDS011;35085;40.398;-3.702;2022-09-13T03:17:56;11.45;;;1.80;;
43554;SDS011;35085;40.398;-3.702;2022-09-13T03:28:04;7.03;;;1.50;;
43554;SDS011;35085;40.398;-3.702;2022-09-13T03:48:16;11.75;;;1.65;;
43554;SDS011;35085;40.398;-3.702;2022-09-13T03:58:26;6.82;;;1.58;;
43554;SDS011;35085;40.398;-3.702;2022-09-13T04:08:34;6.80;;;1.40;;
43554;SDS011;35085;40.398;-3.702;2022-09-13T04:18:44;9.80;;;1.70;;
43554;SDS011;35085;40.398;-3.702;2022-09-13T04:28:53;15.33;;;2.00;;
43554;SDS011;35085;40.398;-3.702;2022-09-13T04:39:01;7.15;;;1.95;;
43554;SDS011;35085;40.398;-3.702;2022-09-13T04:49:10;7.60;;;2.03;;
43554;SDS011;35085;40.398;-3.702;2022-09-13T04:59:17;11.50;;;2.22;;
43554;SDS011;35085;40.398;-3.702;2022-09-13T05:09:26;9.00;;;2.40;;
43554;SDS011;35085;40.398;-3.702;2022-09-13T05:19:35;14.60;;;2.23;;
43554;SDS011;35085;40.398;-3.702;2022-09-13T05:29:44;7.82;;;1.70;;
43554;SDS011;35085;40.398;-3.702;2022-09-13T05:39:53;10.10;;;2.63;;
43554;SDS011;35085;40.398;-3.702;2022-09-13T05:50:02;11.93;;;1.80;;
43554;SDS011;35085;40.398;-3.702;2022-09-13T06:10:13;9.15;;;1.88;;
43554;SDS011;35085;40.398;-3.702;2022-09-13T06:20:22;11.07;;;3.28;;
43554;SDS011;35085;40.398;-3.702;2022-09-13T06:30:31;8.43;;;2.42;;
43554;SDS011;35085;40.398;-3.702;2022-09-13T06:40:40;14.50;;;2.77;;
43554;SDS011;35085;40.398;-3.702;2022-09-13T06:50:49;8.23;;;2.80;;
43554;SDS011;35085;40.398;-3.702;2022-09-13T07:11:30;7.97;;;2.55;;
43554;SDS011;35085;40.398;-3.702;2022-09-13T07:21:33;13.70;;;2.95;;
43554;SDS011;35085;40.398;-3.702;2022-09-13T07:31:47;10.15;;;3.35;;
43554;SDS011;35085;40.398;-3.702;2022-09-13T07:41:50;9.60;;;2.45;;
43554;SDS011;35085;40.398;-3.702;2022-09-13T07:52:00;12.07;;;2.63;;
43554;SDS011;35085;40.398;-3.702;2022-09-13T08:02:09;10.97;;;3.63;;
43554;SDS011;35085;40.398;-3.702;2022-09-13T08:12:18;9.67;;;3.23;;
43554;SDS011;35085;40.398;-3.702;2022-09-13T08:22:27;9.67;;;3.10;;
43554;SDS011;35085;40.398;-3.702;2022-09-13T08:32:36;9.93;;;2.63;;
43554;SDS011;35085;40.398;-3.702;2022-09-13T08:42:48;10.43;;;2.87;;
43554;SDS011;35085;40.398;-3.702;2022-09-13T08:53:07;16.55;;;2.67;;
43554;SDS011;35085;40.398;-3.702;2022-09-13T09:03:20;11.38;;;2.70;;
43554;SDS011;35085;40.398;-3.702;2022-09-13T09:13:31;8.85;;;2.30;;
43554;SDS011;35085;40.398;-3.702;2022-09-13T09:23:38;8.23;;;2.60;;
43554;SDS011;35085;40.398;-3.702;2022-09-13T09:54:24;7.88;;;2.70;;
43554;SDS011;35085;40.398;-3.702;2022-09-13T10:04:31;8.88;;;2.67;;
43554;SDS011;35085;40.398;-3.702;2022-09-13T10:34:51;3.67;;;1.20;;
43554;SDS011;35085;40.398;-3.702;2022-09-13T10:45:07;8.63;;;1.70;;
43554;SDS011;35085;40.398;-3.702;2022-09-13T11:05:40;4.18;;;1.88;;
43554;SDS011;35085;40.398;-3.702;2022-09-13T11:46:45;6.05;;;2.97;;
43554;SDS011;35085;40.398;-3.702;2022-09-13T11:57:00;5.10;;;1.97;;
43554;SDS011;35085;40.398;-3.702;2022-09-13T12:07:09;33.75;;;2.13;;
43554;SDS011;35085;40.398;-3.702;2022-09-13T12:17:53;4.18;;;1.30;;
43554;SDS011;35085;40.398;-3.702;2022-09-13T12:27:55;3.05;;;1.30;;
43554;SDS011;35085;40.398;-3.702;2022-09-13T12:38:07;1.65;;;0.70;;
43554;SDS011;35085;40.398;-3.702;2022-09-13T12:48:16;4.85;;;1.65;;
43554;SDS011;35085;40.398;-3.702;2022-09-13T12:58:39;2.42;;;1.20;;
43554;SDS011;35085;40.398;-3.702;2022-09-13T13:08:49;2.97;;;1.15;;
43554;SDS011;35085;40.398;-3.702;2022-09-13T13:19:26;2.65;;;0.60;;
43554;SDS011;35085;40.398;-3.702;2022-09-13T13:29:29;3.70;;;1.77;;
43554;SDS011;35085;40.398;-3.702;2022-09-13T13:39:39;2.53;;;0.73;;
43554;SDS011;35085;40.398;-3.702;2022-09-13T13:50:32;2.45;;;1.00;;
43554;SDS011;35085;40.398;-3.702;2022-09-13T14:00:23;2.08;;;0.90;;
43554;SDS011;35085;40.398;-3.702;2022-09-13T14:20:55;2.50;;;0.65;;
43554;SDS011;35085;40.398;-3.702;2022-09-13T14:30:59;2.28;;;1.00;;
43554;SDS011;35085;40.398;-3.702;2022-09-13T14:51:33;2.97;;;0.70;;
43554;SDS011;35085;40.398;-3.702;2022-09-13T15:01:37;5.18;;;1.27;;
43554;SDS011;35085;40.398;-3.702;2022-09-13T15:32:03;4.13;;;1.00;;
43554;SDS011;35085;40.398;-3.702;2022-09-13T15:42:10;3.13;;;1.25;;
43554;SDS011;35085;40.398;-3.702;2022-09-13T15:52:19;3.63;;;1.33;;
43554;SDS011;35085;40.398;-3.702;2022-09-13T16:02:27;4.88;;;1.00;;
43554;SDS011;35085;40.398;-3.702;2022-09-13T16:12:30;3.28;;;1.02;;
43554;SDS011;35085;40.398;-3.702;2022-09-13T16:22:40;6.45;;;2.38;;
43554;SDS011;35085;40.398;-3.702;2022-09-13T16:32:49;3.78;;;0.90;;
43554;SDS011;35085;40.398;-3.702;2022-09-13T16:42:58;2.55;;;1.35;;
43554;SDS011;35085;40.398;-3.702;2022-09-13T17:03:08;1.50;;;0.50;;
43554;SDS011;35085;40.398;-3.702;2022-09-13T17:13:10;1.73;;;0.50;;
43554;SDS011;35085;40.398;-3.702;2022-09-13T17:23:20;2.88;;;0.90;;
43554;SDS011;35085;40.398;-3.702;2022-09-13T17:33:29;1.88;;;0.60;;
43554;SDS011;35085;40.398;-3.702;2022-09-13T17:43:37;3.00;;;1.13;;
43554;SDS011;35085;40.398;-3.702;2022-09-13T17:53:47;4.15;;;0.82;;
43554;SDS011;35085;40.398;-3.702;2022-09-13T18:03:53;3.03;;;1.00;;
43554;SDS011;35085;40.398;-3.702;2022-09-13T18:14:03;1.90;;;0.77;;
43554;SDS011;35085;40.398;-3.702;2022-09-13T18:24:10;5.25;;;1.30;;
43554;SDS011;35085;40.398;-3.702;2022-09-13T18:34:18;4.70;;;2.00;;
43554;SDS011;35085;40.398;-3.702;2022-09-13T18:44:27;4.63;;;1.80;;
43554;SDS011;35085;40.398;-3.702;2022-09-13T18:54:33;5.20;;;2.42;;
43554;SDS011;35085;40.398;-3.702;2022-09-13T19:04:42;4.72;;;1.10;;
43554;SDS011;35085;40.398;-3.702;2022-09-13T19:14:51;5.27;;;1.30;;
43554;SDS011;35085;40.398;-3.702;2022-09-13T19:25:00;4.80;;;1.33;;
43554;SDS011;35085;40.398;-3.702;2022-09-13T19:45:11;7.35;;;2.90;;
43554;SDS011;35085;40.398;-3.702;2022-09-13T19:55:19;3.73;;;1.57;;
43554;SDS011;35085;40.398;-3.702;2022-09-13T20:05:30;3.87;;;1.30;;
43554;SDS011;35085;40.398;-3.702;2022-09-13T20:15:37;2.90;;;0.98;;
43554;SDS011;35085;40.398;-3.702;2022-09-13T20:25:46;2.90;;;1.17;;
43554;SDS011;35085;40.398;-3.702;2022-09-13T20:35:55;3.10;;;0.90;;
43554;SDS011;35085;40.398;-3.702;2022-09-13T20:46:04;2.40;;;0.67;;
43554;SDS011;35085;40.398;-3.702;2022-09-13T20:56:14;1.45;;;0.63;;
43554;SDS011;35085;40.398;-3.702;2022-09-13T21:06:24;3.40;;;1.00;;
43554;SDS011;35085;40.398;-3.702;2022-09-13T21:16:36;3.28;;;1.52;;
43554;SDS011;35085;40.398;-3.702;2022-09-13T21:26:41;3.50;;;0.90;;
43554;SDS011;35085;40.398;-3.702;2022-09-13T21:36:52;4.30;;;1.50;;
43554;SDS011;35085;40.398;-3.702;2022-09-13T21:46:59;3.60;;;0.70;;
43554;SDS011;35085;40.398;-3.702;2022-09-13T21:57:08;1.05;;;0.30;;
43554;SDS011;35085;40.398;-3.702;2022-09-13T22:07:19;3.13;;;0.90;;
43554;SDS011;35085;40.398;-3.702;2022-09-13T22:17:28;2.35;;;0.57;;
43554;SDS011;35085;40.398;-3.702;2022-09-13T22:27:39;1.63;;;0.77;;
43554;SDS011;35085;40.398;-3.702;2022-09-13T22:37:48;2.25;;;0.52;;
43554;SDS011;35085;40.398;-3.702;2022-09-13T22:47:57;2.43;;;0.50;;
43554;SDS011;35085;40.398;-3.702;2022-09-13T22:58:06;3.20;;;0.70;;
43554;SDS011;35085;40.398;-3.702;2022-09-13T23:08:15;3.57;;;0.63;;
43554;SDS011;35085;40.398;-3.702;2022-09-13T23:18:24;3.53;;;1.07;;
43554;SDS011;35085;40.398;-3.702;2022-09-13T23:28:34;1.87;;;0.73;;
43554;SDS011;35085;40.398;-3.702;2022-09-13T23:38:36;2.55;;;0.55;;
43554;SDS011;35085;40.398;-3.702;2022-09-13T23:48:45;2.53;;;0.70;;
43554;SDS011;35085;40.398;-3.702;2022-09-13T23:58:55;2.37;;;0.80;;
